Bacone, Oklahoma
Current Conditions -  °F | °C
As of 9:53 PM on Sunday 23 Nov 2014 (Local Time) from KMKO Reporting Station
Light Rain Light Rain  
Wind Chill: 38°   Ceiling: 2400
Heat Index: 46°   Visibility: 10mi
Dew Point: 41°   Wind: 21mph
Humidity: 83%   Direction: 320°NW
Pressure: 29.61"   Gusts: 33mph
Location:  35.6818°N, 95.3578°W
Report Text: KMKO 240353Z AUTO 32018G29KT 10SM -RA FEW018 BKN024 OVC029 08/05 A2961 RMK AO2 PK WND 31032/0301 SLP025 P0003 T00780050
Loading
Personal Weather Stations






























Interactive Weather Map New forecast layout! Learn more

10-Day Weather Forecast

Advertisements
Track Severe Weather on mobile